Time;durP1;ratioP1;P1;durP2;ratioP2;P2;SDS_P1;SDS_P2;PMS_P1;PMS_P2;Temp;Humidity;BMP_temperature;BMP_pressure;BME280_temperature;BME280_humidity;BME280_pressure;Samples;Min_cycle;Max_cycle;Signal;HPM_P1;HPM_P2
2021/08/18 00:00:03;;;;;;;;;;;20.30;68.80;;;;;;494091;240;1162;-46
2021/08/18 00:02:05;;;;;;;;;;;20.20;69.20;;;;;;494025;240;1367;-46
2021/08/18 00:04:06;;;;;;;;;;;20.10;69.40;;;;;;494057;240;2140;-46
2021/08/18 00:06:07;;;;;;;;;;;20.10;69.70;;;;;;494041;240;1719;-46
2021/08/18 00:08:09;;;;;;;;;;;20.00;69.80;;;;;;494199;240;1083;-46
2021/08/18 00:10:10;;;;;;;;;;;19.90;70.00;;;;;;494119;240;1140;-46
2021/08/18 00:12:11;;;;;;;;;;;19.90;70.20;;;;;;494496;240;1035;-46
2021/08/18 00:14:13;;;;;;;;;;;19.90;70.20;;;;;;494589;240;1045;-46
2021/08/18 00:16:14;;;;;;;;;;;19.90;70.30;;;;;;494235;240;1247;-46
2021/08/18 00:18:15;;;;;;;;;;;19.80;70.30;;;;;;494213;240;1059;-46
2021/08/18 00:20:17;;;;;;;;;;;19.80;70.40;;;;;;494520;240;1128;-46
2021/08/18 00:22:18;;;;;;;;;;;19.80;70.40;;;;;;494411;240;1059;-46
2021/08/18 00:24:19;;;;;;;;;;;19.80;70.60;;;;;;494275;240;2175;-46
2021/08/18 00:26:26;;;;;;;;;;;19.70;70.60;;;;;;494083;240;1076;-46
2021/08/18 00:28:23;;;;;;;;;;;19.70;70.70;;;;;;494112;241;2215;-46
2021/08/18 00:30:24;;;;;;;;;;;19.70;70.80;;;;;;494501;240;1060;-46
2021/08/18 00:32:25;;;;;;;;;;;19.70;70.80;;;;;;494502;240;1088;-46
2021/08/18 00:34:27;;;;;;;;;;;19.70;70.80;;;;;;494588;240;1048;-46
2021/08/18 00:36:28;;;;;;;;;;;19.60;70.80;;;;;;494057;240;1373;-46
2021/08/18 00:38:29;;;;;;;;;;;19.60;70.60;;;;;;494509;240;1126;-46
2021/08/18 00:40:31;;;;;;;;;;;19.60;70.80;;;;;;494142;240;1259;-46
2021/08/18 00:42:32;;;;;;;;;;;19.60;70.80;;;;;;494097;240;1159;-46
2021/08/18 00:44:33;;;;;;;;;;;19.60;70.80;;;;;;494120;240;2135;-46
2021/08/18 00:46:35;;;;;;;;;;;19.60;70.80;;;;;;494050;240;1370;-46
2021/08/18 00:48:36;;;;;;;;;;;19.60;70.90;;;;;;494087;240;1223;-46
2021/08/18 00:50:37;;;;;;;;;;;19.50;70.90;;;;;;494256;240;1397;-46
2021/08/18 00:52:38;;;;;;;;;;;19.60;70.90;;;;;;494011;240;1198;-45
2021/08/18 00:54:40;;;;;;;;;;;19.50;70.90;;;;;;493959;240;1175;-46
2021/08/18 00:56:41;;;;;;;;;;;19.50;70.90;;;;;;494408;240;1274;-46
2021/08/18 00:58:42;;;;;;;;;;;19.50;71.00;;;;;;494327;240;1297;-46
2021/08/18 01:00:44;;;;;;;;;;;19.50;71.00;;;;;;494508;240;1266;-46
2021/08/18 01:02:46;;;;;;;;;;;19.50;71.00;;;;;;494070;240;1186;-46
2021/08/18 01:04:46;;;;;;;;;;;19.40;71.00;;;;;;494350;240;2187;-46
2021/08/18 01:06:48;;;;;;;;;;;19.40;71.00;;;;;;494041;240;1402;-46
2021/08/18 01:08:49;;;;;;;;;;;19.50;71.00;;;;;;494448;240;1104;-46
2021/08/18 01:10:50;;;;;;;;;;;19.40;71.00;;;;;;494154;240;1140;-46
2021/08/18 01:12:52;;;;;;;;;;;19.40;71.00;;;;;;494041;240;1251;-46
2021/08/18 01:14:53;;;;;;;;;;;19.40;71.00;;;;;;494096;240;1158;-46
2021/08/18 01:16:54;;;;;;;;;;;19.40;71.00;;;;;;494456;240;1140;-46
2021/08/18 01:18:56;;;;;;;;;;;19.40;71.00;;;;;;494538;240;1270;-46
2021/08/18 01:20:57;;;;;;;;;;;19.40;71.10;;;;;;494280;240;1096;-46
2021/08/18 01:22:58;;;;;;;;;;;19.40;71.20;;;;;;494508;240;1145;-46
2021/08/18 01:25:00;;;;;;;;;;;19.40;71.20;;;;;;494350;240;2191;-46
2021/08/18 01:27:01;;;;;;;;;;;19.40;71.00;;;;;;494508;240;1084;-46
2021/08/18 01:29:02;;;;;;;;;;;19.40;71.10;;;;;;494446;240;1025;-46
2021/08/18 01:31:04;;;;;;;;;;;19.40;71.10;;;;;;494494;240;1175;-46
2021/08/18 01:33:05;;;;;;;;;;;19.40;71.10;;;;;;494071;240;1134;-46
2021/08/18 01:35:06;;;;;;;;;;;19.40;71.10;;;;;;494431;240;1081;-46
2021/08/18 01:37:07;;;;;;;;;;;19.40;71.10;;;;;;494069;240;1188;-46
2021/08/18 01:39:09;;;;;;;;;;;19.30;71.10;;;;;;494124;240;1094;-45
2021/08/18 01:41:10;;;;;;;;;;;19.30;71.10;;;;;;494069;240;1725;-46
2021/08/18 01:43:11;;;;;;;;;;;19.30;71.10;;;;;;494296;240;1074;-46
2021/08/18 01:45:13;;;;;;;;;;;19.30;71.10;;;;;;494516;240;2186;-46
2021/08/18 01:47:14;;;;;;;;;;;19.30;71.20;;;;;;494248;240;1241;-46
2021/08/18 01:49:15;;;;;;;;;;;19.30;71.20;;;;;;494024;240;1039;-46
2021/08/18 01:51:17;;;;;;;;;;;19.30;71.20;;;;;;494214;240;1064;-46
2021/08/18 01:53:18;;;;;;;;;;;19.30;71.20;;;;;;494539;240;1030;-46
2021/08/18 01:55:19;;;;;;;;;;;19.30;71.20;;;;;;494053;240;1272;-46
2021/08/18 01:57:21;;;;;;;;;;;19.30;71.20;;;;;;494477;240;1031;-46
2021/08/18 01:59:26;;;;;;;;;;;19.30;71.20;;;;;;494349;240;1027;-46
2021/08/18 02:01:24;;;;;;;;;;;19.30;71.20;;;;;;494180;241;1485;-46
2021/08/18 02:03:25;;;;;;;;;;;19.30;71.20;;;;;;494078;240;1124;-46
2021/08/18 02:05:27;;;;;;;;;;;19.30;71.30;;;;;;494469;240;2187;-45
2021/08/18 02:07:28;;;;;;;;;;;19.30;71.30;;;;;;494463;240;1038;-46
2021/08/18 02:09:29;;;;;;;;;;;19.30;71.20;;;;;;494196;240;1039;-46
2021/08/18 02:11:31;;;;;;;;;;;19.20;71.20;;;;;;494103;240;1124;-46
2021/08/18 02:13:32;;;;;;;;;;;19.20;71.30;;;;;;494399;240;1028;-46
2021/08/18 02:15:33;;;;;;;;;;;19.20;71.20;;;;;;494030;241;1051;-46
2021/08/18 02:17:35;;;;;;;;;;;19.20;71.40;;;;;;493973;240;1061;-46
2021/08/18 02:19:36;;;;;;;;;;;19.20;71.30;;;;;;494514;240;1143;-46
2021/08/18 02:21:37;;;;;;;;;;;19.20;71.30;;;;;;494051;240;1080;-46
2021/08/18 02:23:39;;;;;;;;;;;19.20;71.20;;;;;;494076;240;1139;-46
2021/08/18 02:25:40;;;;;;;;;;;19.20;71.20;;;;;;494344;240;2191;-46
2021/08/18 02:27:41;;;;;;;;;;;19.20;71.30;;;;;;494023;240;1308;-46
2021/08/18 02:29:43;;;;;;;;;;;19.20;71.20;;;;;;494110;240;1133;-46
2021/08/18 02:31:44;;;;;;;;;;;19.20;71.20;;;;;;494396;240;1256;-46
2021/08/18 02:33:45;;;;;;;;;;;19.20;71.30;;;;;;494489;240;1018;-46
2021/08/18 02:35:47;;;;;;;;;;;19.20;71.20;;;;;;494536;240;1303;-46
2021/08/18 02:37:48;;;;;;;;;;;19.20;71.20;;;;;;494286;240;1399;-46
2021/08/18 02:39:50;;;;;;;;;;;19.20;71.20;;;;;;494513;240;1056;-46
2021/08/18 02:41:51;;;;;;;;;;;19.20;71.20;;;;;;494052;240;1274;-46
2021/08/18 02:43:52;;;;;;;;;;;19.20;71.30;;;;;;494056;240;1149;-46
2021/08/18 02:45:53;;;;;;;;;;;19.20;71.30;;;;;;494279;240;2147;-46
2021/08/18 02:47:55;;;;;;;;;;;19.20;71.30;;;;;;494036;240;1170;-46
2021/08/18 02:49:56;;;;;;;;;;;19.20;71.30;;;;;;494576;240;1032;-46
2021/08/18 02:51:57;;;;;;;;;;;19.20;71.30;;;;;;494450;240;1272;-46
2021/08/18 02:53:59;;;;;;;;;;;19.20;71.30;;;;;;494152;240;1211;-46
2021/08/18 02:56:00;;;;;;;;;;;19.20;71.30;;;;;;494288;240;1255;-46
2021/08/18 02:58:01;;;;;;;;;;;19.10;71.30;;;;;;494047;240;1052;-46
2021/08/18 03:00:03;;;;;;;;;;;19.20;71.30;;;;;;494041;240;1197;-46
2021/08/18 03:02:04;;;;;;;;;;;19.20;71.40;;;;;;494041;240;1421;-46
2021/08/18 03:04:05;;;;;;;;;;;19.20;71.30;;;;;;494524;240;1036;-46
2021/08/18 03:06:07;;;;;;;;;;;19.10;71.20;;;;;;494032;240;2178;-46
2021/08/18 03:08:08;;;;;;;;;;;19.20;71.30;;;;;;494002;240;1571;-46
2021/08/18 03:10:09;;;;;;;;;;;19.20;71.30;;;;;;494081;240;1050;-46
2021/08/18 03:12:11;;;;;;;;;;;19.20;71.30;;;;;;494067;240;1318;-46
2021/08/18 03:14:12;;;;;;;;;;;19.20;71.30;;;;;;494575;240;1098;-46
2021/08/18 03:16:13;;;;;;;;;;;19.10;71.30;;;;;;494019;240;1079;-46
2021/08/18 03:18:15;;;;;;;;;;;19.10;71.20;;;;;;494511;240;1137;-45
2021/08/18 03:20:16;;;;;;;;;;;19.20;71.30;;;;;;494090;240;1066;-46
2021/08/18 03:22:17;;;;;;;;;;;19.10;71.30;;;;;;493992;240;1197;-46
2021/08/18 03:24:18;;;;;;;;;;;19.20;71.40;;;;;;493985;240;1327;-46
2021/08/18 03:26:20;;;;;;;;;;;19.20;71.30;;;;;;493941;240;2198;-46
2021/08/18 03:28:21;;;;;;;;;;;19.20;71.30;;;;;;494464;240;1098;-46
2021/08/18 03:30:23;;;;;;;;;;;19.10;71.30;;;;;;494061;240;1037;-46
2021/08/18 03:32:24;;;;;;;;;;;19.10;71.30;;;;;;494465;240;1220;-46
2021/08/18 03:34:25;;;;;;;;;;;19.10;71.40;;;;;;494044;240;1046;-46
2021/08/18 03:36:27;;;;;;;;;;;19.10;71.40;;;;;;494299;240;1141;-46
2021/08/18 03:38:28;;;;;;;;;;;19.10;71.50;;;;;;494034;241;1833;-46
2021/08/18 03:40:29;;;;;;;;;;;19.10;71.50;;;;;;494043;240;1064;-46
2021/08/18 03:42:30;;;;;;;;;;;19.10;71.40;;;;;;494063;240;1172;-46
2021/08/18 03:44:32;;;;;;;;;;;19.10;71.30;;;;;;494159;240;1064;-46
2021/08/18 03:46:33;;;;;;;;;;;19.10;71.40;;;;;;494006;240;2116;-46
2021/08/18 03:48:34;;;;;;;;;;;19.10;71.30;;;;;;494087;240;1018;-46
2021/08/18 03:50:36;;;;;;;;;;;19.10;71.40;;;;;;494322;240;1056;-46
2021/08/18 03:52:37;;;;;;;;;;;19.20;71.30;;;;;;494014;240;1260;-46
2021/08/18 03:54:38;;;;;;;;;;;19.10;71.20;;;;;;494218;240;1086;-46
2021/08/18 03:56:40;;;;;;;;;;;19.10;71.30;;;;;;494224;237;1302;-46
2021/08/18 03:58:41;;;;;;;;;;;19.10;71.40;;;;;;494163;240;1015;-46
2021/08/18 04:00:42;;;;;;;;;;;19.10;71.30;;;;;;494224;240;1060;-46
2021/08/18 04:02:44;;;;;;;;;;;19.10;71.40;;;;;;493981;240;1616;-46
2021/08/18 04:04:45;;;;;;;;;;;19.10;71.40;;;;;;493982;240;1055;-46
2021/08/18 04:06:46;;;;;;;;;;;19.10;71.40;;;;;;494117;240;2127;-46
2021/08/18 04:08:48;;;;;;;;;;;19.10;71.30;;;;;;493986;240;1060;-46
2021/08/18 04:10:49;;;;;;;;;;;19.10;71.30;;;;;;493942;240;1070;-46
2021/08/18 04:12:50;;;;;;;;;;;19.10;71.30;;;;;;494042;240;1129;-46
2021/08/18 04:14:51;;;;;;;;;;;19.10;71.30;;;;;;494075;240;1252;-46
2021/08/18 04:16:53;;;;;;;;;;;19.10;71.40;;;;;;494037;240;1039;-46
2021/08/18 04:18:54;;;;;;;;;;;19.10;71.50;;;;;;494001;240;1073;-46
2021/08/18 04:20:55;;;;;;;;;;;19.10;71.40;;;;;;494286;240;1477;-46
2021/08/18 04:22:57;;;;;;;;;;;19.10;71.30;;;;;;494165;240;1084;-46
2021/08/18 04:24:58;;;;;;;;;;;19.10;71.40;;;;;;494064;240;1256;-46
2021/08/18 04:26:59;;;;;;;;;;;19.10;71.40;;;;;;494119;240;2119;-46
2021/08/18 04:29:01;;;;;;;;;;;19.10;71.30;;;;;;493968;240;1088;-46
2021/08/18 04:31:02;;;;;;;;;;;19.10;71.40;;;;;;494010;240;1078;-46
2021/08/18 04:33:03;;;;;;;;;;;19.10;71.40;;;;;;494139;240;1237;-45
2021/08/18 04:35:05;;;;;;;;;;;19.10;71.30;;;;;;494236;240;1186;-46
2021/08/18 04:37:06;;;;;;;;;;;19.10;71.30;;;;;;494019;240;1479;-46
2021/08/18 04:39:07;;;;;;;;;;;19.10;71.50;;;;;;494107;240;1091;-46
2021/08/18 04:41:09;;;;;;;;;;;19.00;71.30;;;;;;494348;240;1167;-46
2021/08/18 04:43:10;;;;;;;;;;;19.10;71.40;;;;;;493946;240;1167;-46
2021/08/18 04:45:11;;;;;;;;;;;19.10;71.40;;;;;;494379;240;2390;-46
2021/08/18 04:47:13;;;;;;;;;;;19.10;71.40;;;;;;493734;240;1511;-46
2021/08/18 04:49:14;;;;;;;;;;;19.00;71.40;;;;;;493944;240;1267;-46
2021/08/18 04:51:15;;;;;;;;;;;19.00;71.40;;;;;;493750;240;1350;-46
2021/08/18 04:53:17;;;;;;;;;;;19.10;71.50;;;;;;493824;240;1304;-46
2021/08/18 04:55:18;;;;;;;;;;;19.00;71.50;;;;;;493806;240;1115;-46
2021/08/18 04:57:19;;;;;;;;;;;19.10;71.60;;;;;;493612;241;1194;-46
2021/08/18 04:59:20;;;;;;;;;;;19.00;71.50;;;;;;493953;240;1258;-46
2021/08/18 05:01:22;;;;;;;;;;;19.00;71.50;;;;;;493815;240;1278;-46
2021/08/18 05:03:23;;;;;;;;;;;19.00;71.60;;;;;;493957;240;1284;-46
2021/08/18 05:05:24;;;;;;;;;;;19.00;71.60;;;;;;493829;240;2190;-46
2021/08/18 05:07:26;;;;;;;;;;;19.00;71.70;;;;;;493749;240;1200;-46
2021/08/18 05:09:27;;;;;;;;;;;19.00;71.60;;;;;;494413;240;1060;-46
2021/08/18 05:11:28;;;;;;;;;;;19.00;71.50;;;;;;493769;240;1327;-46
2021/08/18 05:13:30;;;;;;;;;;;19.00;71.50;;;;;;493906;240;1162;-46
2021/08/18 05:15:31;;;;;;;;;;;19.10;71.50;;;;;;493988;240;1101;-46
2021/08/18 05:17:32;;;;;;;;;;;19.00;71.60;;;;;;493899;240;1111;-46
2021/08/18 05:19:34;;;;;;;;;;;19.00;71.60;;;;;;494135;240;1023;-46
2021/08/18 05:21:35;;;;;;;;;;;19.00;71.60;;;;;;494067;240;1515;-46
2021/08/18 05:23:36;;;;;;;;;;;19.00;71.60;;;;;;493888;240;1051;-46
2021/08/18 05:25:38;;;;;;;;;;;19.00;71.50;;;;;;493742;240;2187;-46
2021/08/18 05:27:39;;;;;;;;;;;19.00;71.50;;;;;;493748;240;1230;-46
2021/08/18 05:29:40;;;;;;;;;;;19.00;71.50;;;;;;493698;240;1160;-46
2021/08/18 05:31:42;;;;;;;;;;;19.00;71.60;;;;;;494010;240;1329;-46
2021/08/18 05:33:43;;;;;;;;;;;19.00;71.50;;;;;;493673;240;1082;-46
2021/08/18 05:35:45;;;;;;;;;;;19.00;71.50;;;;;;493602;240;1434;-46
2021/08/18 05:37:46;;;;;;;;;;;19.00;71.60;;;;;;493658;240;1079;-46
2021/08/18 05:39:47;;;;;;;;;;;19.00;71.50;;;;;;493920;240;1050;-46
2021/08/18 05:41:49;;;;;;;;;;;19.00;71.60;;;;;;493751;240;1338;-46
2021/08/18 05:43:51;;;;;;;;;;;19.00;71.60;;;;;;493717;240;1191;-46
2021/08/18 05:45:51;;;;;;;;;;;19.00;71.70;;;;;;493695;240;2183;-46
2021/08/18 05:47:53;;;;;;;;;;;18.90;71.60;;;;;;493945;240;1269;-46
2021/08/18 05:49:54;;;;;;;;;;;19.00;71.70;;;;;;493783;240;1091;-46
2021/08/18 05:51:55;;;;;;;;;;;19.00;71.60;;;;;;493866;240;1241;-46
2021/08/18 05:53:56;;;;;;;;;;;19.00;71.70;;;;;;493756;240;1147;-46
2021/08/18 05:55:58;;;;;;;;;;;19.00;71.60;;;;;;493772;240;1136;-46
2021/08/18 05:57:59;;;;;;;;;;;19.00;71.60;;;;;;493800;240;1276;-46
2021/08/18 06:00:00;;;;;;;;;;;19.00;71.80;;;;;;493659;240;1099;-46
2021/08/18 06:02:02;;;;;;;;;;;19.00;71.60;;;;;;493635;240;1281;-46
2021/08/18 06:04:03;;;;;;;;;;;19.00;71.60;;;;;;493794;240;1106;-46
2021/08/18 06:06:05;;;;;;;;;;;19.00;71.60;;;;;;493628;240;2178;-46
2021/08/18 06:08:06;;;;;;;;;;;19.00;71.70;;;;;;493710;240;1212;-46
2021/08/18 06:10:07;;;;;;;;;;;19.00;71.70;;;;;;493536;240;1093;-46
2021/08/18 06:12:09;;;;;;;;;;;19.00;71.70;;;;;;493752;240;1261;-46
2021/08/18 06:14:10;;;;;;;;;;;18.90;71.60;;;;;;493492;240;1175;-46
2021/08/18 06:16:11;;;;;;;;;;;19.00;71.70;;;;;;493475;240;1282;-46
2021/08/18 06:18:13;;;;;;;;;;;18.90;71.70;;;;;;493806;240;1143;-45
2021/08/18 06:20:16;;;;;;;;;;;18.90;71.60;;;;;;493612;240;1236;-46
2021/08/18 06:22:15;;;;;;;;;;;18.90;71.60;;;;;;493485;241;2081;-46
2021/08/18 06:24:26;;;;;;;;;;;19.00;71.60;;;;;;493729;240;1158;-46
2021/08/18 06:26:18;;;;;;;;;;;18.90;71.60;;;;;;492930;241;2191;-46
2021/08/18 06:28:20;;;;;;;;;;;18.90;71.70;;;;;;493491;240;1189;-46
2021/08/18 06:30:21;;;;;;;;;;;18.90;71.70;;;;;;493484;240;1211;-46
2021/08/18 06:32:22;;;;;;;;;;;18.90;71.80;;;;;;493577;240;1278;-46
2021/08/18 06:34:24;;;;;;;;;;;18.90;71.80;;;;;;493582;240;1193;-46
2021/08/18 06:36:25;;;;;;;;;;;18.90;71.70;;;;;;493537;240;1354;-46
2021/08/18 06:38:26;;;;;;;;;;;18.90;71.70;;;;;;493791;240;1079;-46
2021/08/18 06:40:28;;;;;;;;;;;18.90;71.70;;;;;;493455;240;1244;-46
2021/08/18 06:42:29;;;;;;;;;;;18.90;71.70;;;;;;493375;240;1173;-45
2021/08/18 06:44:31;;;;;;;;;;;18.90;71.60;;;;;;493274;240;1255;-46
2021/08/18 06:46:32;;;;;;;;;;;18.90;71.70;;;;;;493156;240;2187;-46
2021/08/18 06:48:34;;;;;;;;;;;18.90;71.70;;;;;;493379;240;1287;-46
2021/08/18 06:50:35;;;;;;;;;;;18.90;71.70;;;;;;493278;240;1253;-46
2021/08/18 06:52:36;;;;;;;;;;;18.90;71.80;;;;;;493278;240;1118;-46
2021/08/18 06:54:37;;;;;;;;;;;18.90;71.70;;;;;;493253;240;1216;-45
2021/08/18 06:56:39;;;;;;;;;;;18.90;71.70;;;;;;493201;240;1158;-46
2021/08/18 06:58:40;;;;;;;;;;;18.90;71.70;;;;;;493136;240;1111;-46
2021/08/18 07:00:41;;;;;;;;;;;18.90;71.60;;;;;;493328;240;1151;-46
2021/08/18 07:02:43;;;;;;;;;;;18.90;71.70;;;;;;493304;240;1327;-46
2021/08/18 07:04:44;;;;;;;;;;;18.90;71.70;;;;;;493295;240;1220;-46
2021/08/18 07:06:45;;;;;;;;;;;18.90;71.60;;;;;;493151;240;2186;-46
2021/08/18 07:08:47;;;;;;;;;;;18.90;71.70;;;;;;493348;240;1096;-46
2021/08/18 07:10:48;;;;;;;;;;;18.90;71.70;;;;;;493346;240;1281;-46
2021/08/18 07:12:49;;;;;;;;;;;18.90;71.80;;;;;;493286;240;1157;-46
2021/08/18 07:14:51;;;;;;;;;;;18.90;71.70;;;;;;493389;240;1332;-46
2021/08/18 07:16:52;;;;;;;;;;;18.90;71.70;;;;;;493254;240;1108;-46
2021/08/18 07:18:53;;;;;;;;;;;18.90;71.70;;;;;;493255;240;1185;-46
2021/08/18 07:20:55;;;;;;;;;;;18.90;71.60;;;;;;493188;241;1192;-46
2021/08/18 07:22:56;;;;;;;;;;;18.90;71.70;;;;;;493260;240;1268;-46
2021/08/18 07:24:59;;;;;;;;;;;18.90;71.80;;;;;;493333;240;1059;-46
2021/08/18 07:26:58;;;;;;;;;;;18.90;71.80;;;;;;493105;241;2235;-46
2021/08/18 07:29:00;;;;;;;;;;;18.90;71.80;;;;;;493338;240;1382;-46
2021/08/18 07:31:01;;;;;;;;;;;18.90;71.80;;;;;;493269;240;1417;-46
2021/08/18 07:33:02;;;;;;;;;;;18.90;71.70;;;;;;493323;240;1226;-46
2021/08/18 07:35:04;;;;;;;;;;;18.90;71.70;;;;;;493322;240;1297;-46
2021/08/18 07:37:05;;;;;;;;;;;18.90;71.70;;;;;;493243;240;1212;-46
2021/08/18 07:39:06;;;;;;;;;;;18.90;71.70;;;;;;493241;240;1088;-46
2021/08/18 07:41:08;;;;;;;;;;;18.90;71.70;;;;;;493249;240;1090;-46
2021/08/18 07:43:09;;;;;;;;;;;18.90;71.70;;;;;;493056;240;1155;-46
2021/08/18 07:45:10;;;;;;;;;;;18.90;71.80;;;;;;493185;240;1287;-46
2021/08/18 07:47:12;;;;;;;;;;;18.90;71.80;;;;;;493209;240;2166;-45
2021/08/18 07:49:13;;;;;;;;;;;18.90;71.80;;;;;;493193;240;1136;-46
2021/08/18 07:51:14;;;;;;;;;;;18.80;71.80;;;;;;493235;240;1211;-45
2021/08/18 07:53:16;;;;;;;;;;;18.90;71.80;;;;;;494081;240;1001;-46
2021/08/18 07:55:17;;;;;;;;;;;18.90;71.90;;;;;;493529;240;1102;-46
2021/08/18 07:57:19;;;;;;;;;;;18.90;71.70;;;;;;493046;240;1225;-46
2021/08/18 07:59:20;;;;;;;;;;;18.90;71.70;;;;;;493149;240;1310;-46
2021/08/18 08:01:21;;;;;;;;;;;18.90;71.80;;;;;;493103;240;1207;-46
2021/08/18 08:03:23;;;;;;;;;;;18.90;71.80;;;;;;493166;240;1235;-46
2021/08/18 08:05:24;;;;;;;;;;;18.90;71.80;;;;;;493185;240;1228;-46
2021/08/18 08:07:25;;;;;;;;;;;18.90;71.80;;;;;;493178;240;2199;-46
2021/08/18 08:09:27;;;;;;;;;;;18.90;71.80;;;;;;493153;240;1170;-46
2021/08/18 08:11:28;;;;;;;;;;;18.90;71.70;;;;;;492997;240;1242;-46
2021/08/18 08:13:29;;;;;;;;;;;18.90;71.70;;;;;;493072;240;1098;-46
2021/08/18 08:15:31;;;;;;;;;;;18.90;71.80;;;;;;493126;240;1185;-46
2021/08/18 08:17:32;;;;;;;;;;;18.90;71.80;;;;;;493136;240;1285;-46
2021/08/18 08:19:33;;;;;;;;;;;18.90;71.70;;;;;;493001;240;1434;-46
2021/08/18 08:21:35;;;;;;;;;;;18.90;71.80;;;;;;492975;240;1147;-46
2021/08/18 08:23:36;;;;;;;;;;;18.90;71.80;;;;;;493074;241;1212;-46
2021/08/18 08:25:37;;;;;;;;;;;18.90;71.80;;;;;;493127;240;1150;-46
2021/08/18 08:27:39;;;;;;;;;;;18.90;71.90;;;;;;493130;240;2135;-46
2021/08/18 08:29:40;;;;;;;;;;;18.90;71.80;;;;;;493267;240;1126;-46
2021/08/18 08:31:42;;;;;;;;;;;18.90;71.80;;;;;;493067;240;1236;-46
2021/08/18 08:33:43;;;;;;;;;;;18.90;71.70;;;;;;493069;240;2434;-46
2021/08/18 08:35:44;;;;;;;;;;;18.90;71.70;;;;;;493087;240;1221;-46
2021/08/18 08:37:45;;;;;;;;;;;18.90;71.70;;;;;;493031;240;1176;-46
2021/08/18 08:39:46;;;;;;;;;;;18.90;71.70;;;;;;493077;240;1111;-46
2021/08/18 08:41:49;;;;;;;;;;;18.90;71.80;;;;;;493041;240;1333;-46
2021/08/18 08:43:49;;;;;;;;;;;18.80;71.80;;;;;;493094;241;1893;-46
2021/08/18 08:45:50;;;;;;;;;;;18.80;71.80;;;;;;493120;240;1199;-46
2021/08/18 08:47:52;;;;;;;;;;;18.80;71.80;;;;;;493089;240;2182;-46
2021/08/18 08:49:53;;;;;;;;;;;18.80;71.80;;;;;;493197;240;1204;-46
2021/08/18 08:51:54;;;;;;;;;;;18.80;71.80;;;;;;493073;240;1216;-46
2021/08/18 08:53:56;;;;;;;;;;;18.80;71.80;;;;;;493139;240;1222;-46
2021/08/18 08:55:57;;;;;;;;;;;18.90;71.80;;;;;;492983;240;1087;-45
2021/08/18 08:57:59;;;;;;;;;;;18.90;71.80;;;;;;493081;240;1154;-46
2021/08/18 09:00:00;;;;;;;;;;;18.90;71.80;;;;;;493249;240;1134;-46
2021/08/18 09:02:01;;;;;;;;;;;18.80;71.80;;;;;;493071;240;1314;-46
2021/08/18 09:04:02;;;;;;;;;;;18.80;71.80;;;;;;493074;240;1063;-45
2021/08/18 09:06:04;;;;;;;;;;;18.80;71.80;;;;;;493005;240;1312;-46
2021/08/18 09:08:06;;;;;;;;;;;18.90;71.80;;;;;;493061;240;2178;-46
2021/08/18 09:10:07;;;;;;;;;;;18.80;71.80;;;;;;493091;240;1044;-46
2021/08/18 09:12:08;;;;;;;;;;;18.90;71.80;;;;;;493056;240;1249;-46
2021/08/18 09:14:11;;;;;;;;;;;18.80;71.80;;;;;;493182;240;1330;-46
2021/08/18 09:16:11;;;;;;;;;;;18.80;72.00;;;;;;493095;240;2054;-46
2021/08/18 09:18:12;;;;;;;;;;;18.80;71.90;;;;;;493184;240;1226;-46
2021/08/18 09:20:14;;;;;;;;;;;18.80;71.90;;;;;;493126;240;1233;-46
2021/08/18 09:22:15;;;;;;;;;;;18.80;71.80;;;;;;493297;240;1263;-45
2021/08/18 09:24:16;;;;;;;;;;;18.80;71.70;;;;;;493163;240;1085;-46
2021/08/18 09:26:18;;;;;;;;;;;18.90;71.80;;;;;;493248;240;1223;-46
2021/08/18 09:28:20;;;;;;;;;;;18.90;71.80;;;;;;493107;240;2152;-46
2021/08/18 09:30:21;;;;;;;;;;;18.80;71.60;;;;;;493100;240;1187;-46
2021/08/18 09:32:22;;;;;;;;;;;18.80;71.60;;;;;;492948;240;1105;-46
2021/08/18 09:34:24;;;;;;;;;;;18.90;71.70;;;;;;492995;240;1097;-46
2021/08/18 09:36:25;;;;;;;;;;;18.80;71.70;;;;;;493210;240;1224;-46
2021/08/18 09:38:26;;;;;;;;;;;18.80;71.80;;;;;;493482;240;1083;-46
2021/08/18 09:40:28;;;;;;;;;;;18.80;71.90;;;;;;493209;240;1091;-46
2021/08/18 09:42:29;;;;;;;;;;;18.80;71.90;;;;;;493439;240;1270;-46
2021/08/18 09:44:31;;;;;;;;;;;18.80;71.80;;;;;;493508;240;915;-46
2021/08/18 09:46:35;;;;;;;;;;;18.90;71.80;;;;;;493621;240;1229;-46
2021/08/18 09:48:33;;;;;;;;;;;18.80;71.70;;;;;;493843;241;2296;-46
2021/08/18 09:50:35;;;;;;;;;;;18.90;71.80;;;;;;494052;240;925;-46
2021/08/18 09:52:36;;;;;;;;;;;18.80;71.80;;;;;;493306;240;1186;-46
2021/08/18 09:54:37;;;;;;;;;;;18.90;71.70;;;;;;493207;240;1098;-46
2021/08/18 09:56:39;;;;;;;;;;;18.80;71.70;;;;;;493087;240;1236;-46
2021/08/18 09:58:40;;;;;;;;;;;18.80;71.80;;;;;;493065;240;1165;-46
2021/08/18 10:00:41;;;;;;;;;;;18.90;71.80;;;;;;493211;240;1320;-46
2021/08/18 10:02:42;;;;;;;;;;;18.80;71.80;;;;;;493130;240;1239;-46
2021/08/18 10:04:44;;;;;;;;;;;18.80;71.80;;;;;;493237;240;1109;-46
2021/08/18 10:06:45;;;;;;;;;;;18.80;71.80;;;;;;493068;241;1493;-46
2021/08/18 10:08:46;;;;;;;;;;;18.80;72.00;;;;;;493180;240;2187;-46
2021/08/18 10:10:48;;;;;;;;;;;18.80;72.00;;;;;;492997;240;1123;-46
2021/08/18 10:12:49;;;;;;;;;;;18.80;71.90;;;;;;493123;240;1344;-46
2021/08/18 10:14:50;;;;;;;;;;;18.80;71.90;;;;;;493188;240;1431;-46
2021/08/18 10:16:52;;;;;;;;;;;18.90;71.40;;;;;;493049;240;1259;-47
2021/08/18 10:18:53;;;;;;;;;;;19.20;70.40;;;;;;493440;240;1334;-46
2021/08/18 10:20:54;;;;;;;;;;;19.50;69.40;;;;;;493157;240;1271;-46
2021/08/18 10:22:56;;;;;;;;;;;19.70;68.60;;;;;;493507;240;1003;-46
2021/08/18 10:24:57;;;;;;;;;;;19.90;68.00;;;;;;493846;240;1040;-46
2021/08/18 10:26:58;;;;;;;;;;;19.90;67.50;;;;;;493454;240;1241;-46
2021/08/18 10:29:00;;;;;;;;;;;20.10;67.10;;;;;;493106;240;2194;-46
2021/08/18 10:31:01;;;;;;;;;;;20.10;66.90;;;;;;493256;240;1331;-46
2021/08/18 10:33:03;;;;;;;;;;;20.20;66.60;;;;;;493493;240;1067;-47
2021/08/18 10:35:04;;;;;;;;;;;20.30;66.50;;;;;;493897;240;1316;-46
2021/08/18 10:37:05;;;;;;;;;;;20.30;66.40;;;;;;493769;240;1108;-46
2021/08/18 10:39:07;;;;;;;;;;;20.30;66.20;;;;;;493916;240;912;-46
2021/08/18 10:41:08;;;;;;;;;;;20.30;66.00;;;;;;493313;240;1144;-46
2021/08/18 10:43:09;;;;;;;;;;;20.40;66.00;;;;;;493404;240;1149;-46
2021/08/18 10:45:10;;;;;;;;;;;20.40;65.80;;;;;;493460;240;1049;-46
2021/08/18 10:47:12;;;;;;;;;;;20.50;65.80;;;;;;493412;240;1216;-46
2021/08/18 10:49:13;;;;;;;;;;;20.50;65.60;;;;;;494015;240;2160;-46
2021/08/18 10:51:14;;;;;;;;;;;20.50;65.60;;;;;;494028;240;1157;-47
2021/08/18 10:53:16;;;;;;;;;;;20.50;65.40;;;;;;493134;240;1158;-46
2021/08/18 10:55:17;;;;;;;;;;;20.60;65.30;;;;;;493326;240;1167;-46
2021/08/18 10:57:18;;;;;;;;;;;20.70;65.10;;;;;;493189;240;1225;-46
2021/08/18 10:59:20;;;;;;;;;;;20.70;65.10;;;;;;493054;240;1144;-47
2021/08/18 11:01:21;;;;;;;;;;;20.70;65.00;;;;;;492908;240;1324;-47
2021/08/18 11:03:22;;;;;;;;;;;20.80;65.00;;;;;;492987;240;1151;-46
2021/08/18 11:05:24;;;;;;;;;;;20.90;64.70;;;;;;493060;240;1116;-46
2021/08/18 11:07:25;;;;;;;;;;;20.80;64.60;;;;;;493028;240;2191;-46
2021/08/18 11:09:26;;;;;;;;;;;20.80;64.70;;;;;;493060;240;1083;-46
2021/08/18 11:11:28;;;;;;;;;;;20.80;64.70;;;;;;492947;240;1327;-46
2021/08/18 11:13:29;;;;;;;;;;;20.90;64.60;;;;;;492978;240;1135;-46
2021/08/18 11:15:30;;;;;;;;;;;20.90;64.60;;;;;;493177;240;1150;-46
2021/08/18 11:17:32;;;;;;;;;;;20.90;64.60;;;;;;493129;240;1239;-46
2021/08/18 11:19:33;;;;;;;;;;;20.90;64.60;;;;;;493236;240;1152;-46
2021/08/18 11:21:34;;;;;;;;;;;21.00;64.40;;;;;;493247;240;1307;-46
2021/08/18 11:23:36;;;;;;;;;;;21.00;64.30;;;;;;493233;240;1176;-46
2021/08/18 11:25:37;;;;;;;;;;;21.00;64.40;;;;;;493318;240;1110;-46
2021/08/18 11:27:38;;;;;;;;;;;21.00;64.20;;;;;;493440;240;2124;-46
2021/08/18 11:29:39;;;;;;;;;;;21.10;64.20;;;;;;494003;240;1096;-46
2021/08/18 11:31:41;;;;;;;;;;;21.10;64.00;;;;;;493861;240;1135;-46
2021/08/18 11:33:42;;;;;;;;;;;21.10;64.10;;;;;;494011;240;1077;-46
2021/08/18 11:35:43;;;;;;;;;;;21.10;64.10;;;;;;492922;240;1220;-45
2021/08/18 11:37:45;;;;;;;;;;;21.10;64.00;;;;;;493043;240;1317;-46
2021/08/18 11:39:48;;;;;;;;;;;21.10;64.10;;;;;;493263;240;1212;-46
2021/08/18 11:41:48;;;;;;;;;;;21.10;64.00;;;;;;493502;241;2406;-46
2021/08/18 11:43:49;;;;;;;;;;;21.20;63.90;;;;;;493231;240;1136;-46
2021/08/18 11:45:51;;;;;;;;;;;21.20;63.90;;;;;;493053;240;1201;-46
2021/08/18 11:47:52;;;;;;;;;;;21.20;63.90;;;;;;493063;240;2140;-46
2021/08/18 11:49:54;;;;;;;;;;;21.20;63.90;;;;;;493208;240;1236;-47
2021/08/18 11:51:55;;;;;;;;;;;21.30;63.80;;;;;;493155;240;1245;-46
2021/08/18 11:53:57;;;;;;;;;;;21.30;63.60;;;;;;493119;240;1171;-46
2021/08/18 11:55:59;;;;;;;;;;;21.30;63.60;;;;;;493045;240;1439;-47